sensor_id;sensor_type;location;lat;lon;timestamp;P1;durP1;ratioP1;P2;durP2;ratioP2
15482;SDS011;7843;50.330;7.312;2022-11-14T00:01:10;5.55;;;3.50;;
15482;SDS011;7843;50.330;7.312;2022-11-14T00:03:37;5.22;;;3.60;;
15482;SDS011;7843;50.330;7.312;2022-11-14T00:06:04;7.43;;;4.00;;
15482;SDS011;7843;50.330;7.312;2022-11-14T00:08:32;7.88;;;4.40;;
15482;SDS011;7843;50.330;7.312;2022-11-14T00:11:00;6.05;;;4.03;;
15482;SDS011;7843;50.330;7.312;2022-11-14T00:13:27;5.85;;;3.50;;
15482;SDS011;7843;50.330;7.312;2022-11-14T00:15:53;6.05;;;4.18;;
15482;SDS011;7843;50.330;7.312;2022-11-14T00:18:20;6.05;;;4.10;;
15482;SDS011;7843;50.330;7.312;2022-11-14T00:20:48;7.93;;;4.25;;
15482;SDS011;7843;50.330;7.312;2022-11-14T00:23:16;4.83;;;3.60;;
15482;SDS011;7843;50.330;7.312;2022-11-14T00:25:43;5.15;;;3.72;;
15482;SDS011;7843;50.330;7.312;2022-11-14T00:28:10;6.88;;;3.80;;
15482;SDS011;7843;50.330;7.312;2022-11-14T00:30:37;5.90;;;4.00;;
15482;SDS011;7843;50.330;7.312;2022-11-14T00:33:04;5.53;;;3.90;;
15482;SDS011;7843;50.330;7.312;2022-11-14T00:35:31;6.82;;;4.18;;
15482;SDS011;7843;50.330;7.312;2022-11-14T00:37:57;6.25;;;3.72;;
15482;SDS011;7843;50.330;7.312;2022-11-14T00:40:24;5.80;;;3.70;;
15482;SDS011;7843;50.330;7.312;2022-11-14T00:42:51;5.95;;;3.95;;
15482;SDS011;7843;50.330;7.312;2022-11-14T00:45:17;6.32;;;3.92;;
15482;SDS011;7843;50.330;7.312;2022-11-14T00:47:47;6.50;;;3.72;;
15482;SDS011;7843;50.330;7.312;2022-11-14T00:50:14;4.63;;;3.22;;
15482;SDS011;7843;50.330;7.312;2022-11-14T00:52:42;7.37;;;3.60;;
15482;SDS011;7843;50.330;7.312;2022-11-14T00:55:08;7.70;;;3.90;;
15482;SDS011;7843;50.330;7.312;2022-11-14T00:57:35;8.93;;;4.00;;
15482;SDS011;7843;50.330;7.312;2022-11-14T01:00:02;6.47;;;4.00;;
15482;SDS011;7843;50.330;7.312;2022-11-14T01:02:30;4.95;;;3.50;;
15482;SDS011;7843;50.330;7.312;2022-11-14T01:04:57;6.78;;;3.58;;
15482;SDS011;7843;50.330;7.312;2022-11-14T01:07:23;6.18;;;4.25;;
15482;SDS011;7843;50.330;7.312;2022-11-14T01:09:50;5.03;;;3.80;;
15482;SDS011;7843;50.330;7.312;2022-11-14T01:12:16;6.32;;;3.83;;
15482;SDS011;7843;50.330;7.312;2022-11-14T01:14:43;6.22;;;3.90;;
15482;SDS011;7843;50.330;7.312;2022-11-14T01:17:10;7.22;;;3.80;;
15482;SDS011;7843;50.330;7.312;2022-11-14T01:19:37;6.50;;;4.05;;
15482;SDS011;7843;50.330;7.312;2022-11-14T01:22:03;5.65;;;4.13;;
15482;SDS011;7843;50.330;7.312;2022-11-14T01:24:31;4.93;;;3.90;;
15482;SDS011;7843;50.330;7.312;2022-11-14T01:26:59;9.18;;;4.25;;
15482;SDS011;7843;50.330;7.312;2022-11-14T01:29:26;7.80;;;4.37;;
15482;SDS011;7843;50.330;7.312;2022-11-14T01:31:53;6.90;;;4.30;;
15482;SDS011;7843;50.330;7.312;2022-11-14T01:34:20;7.60;;;3.87;;
15482;SDS011;7843;50.330;7.312;2022-11-14T01:36:47;7.75;;;3.95;;
15482;SDS011;7843;50.330;7.312;2022-11-14T01:39:14;4.97;;;3.60;;
15482;SDS011;7843;50.330;7.312;2022-11-14T01:41:41;7.68;;;4.13;;
15482;SDS011;7843;50.330;7.312;2022-11-14T01:44:12;5.72;;;3.72;;
15482;SDS011;7843;50.330;7.312;2022-11-14T01:46:45;7.40;;;4.28;;
15482;SDS011;7843;50.330;7.312;2022-11-14T01:54:47;8.48;;;4.60;;
15482;SDS011;7843;50.330;7.312;2022-11-14T01:57:16;6.13;;;4.23;;
15482;SDS011;7843;50.330;7.312;2022-11-14T01:59:47;7.30;;;4.50;;
15482;SDS011;7843;50.330;7.312;2022-11-14T02:02:20;7.40;;;4.70;;
15482;SDS011;7843;50.330;7.312;2022-11-14T02:04:52;7.10;;;4.18;;
15482;SDS011;7843;50.330;7.312;2022-11-14T02:07:22;8.30;;;4.65;;
15482;SDS011;7843;50.330;7.312;2022-11-14T02:09:52;12.90;;;6.13;;
15482;SDS011;7843;50.330;7.312;2022-11-14T02:12:19;12.02;;;6.55;;
15482;SDS011;7843;50.330;7.312;2022-11-14T02:14:48;8.30;;;4.97;;
15482;SDS011;7843;50.330;7.312;2022-11-14T02:17:20;10.77;;;5.25;;
15482;SDS011;7843;50.330;7.312;2022-11-14T02:22:28;9.90;;;4.00;;
15482;SDS011;7843;50.330;7.312;2022-11-14T02:24:55;7.00;;;3.75;;
15482;SDS011;7843;50.330;7.312;2022-11-14T02:27:22;6.25;;;4.15;;
15482;SDS011;7843;50.330;7.312;2022-11-14T02:29:49;7.28;;;3.55;;
15482;SDS011;7843;50.330;7.312;2022-11-14T02:32:15;5.32;;;3.60;;
15482;SDS011;7843;50.330;7.312;2022-11-14T02:34:42;5.07;;;3.40;;
15482;SDS011;7843;50.330;7.312;2022-11-14T02:37:09;5.05;;;3.55;;
15482;SDS011;7843;50.330;7.312;2022-11-14T02:39:35;5.22;;;3.45;;
15482;SDS011;7843;50.330;7.312;2022-11-14T02:42:02;6.55;;;3.83;;
15482;SDS011;7843;50.330;7.312;2022-11-14T02:44:29;5.22;;;3.40;;
15482;SDS011;7843;50.330;7.312;2022-11-14T02:46:55;4.40;;;2.88;;
15482;SDS011;7843;50.330;7.312;2022-11-14T02:49:22;6.03;;;3.20;;
15482;SDS011;7843;50.330;7.312;2022-11-14T02:51:49;3.58;;;2.72;;
15482;SDS011;7843;50.330;7.312;2022-11-14T02:54:15;3.65;;;2.92;;
15482;SDS011;7843;50.330;7.312;2022-11-14T02:56:42;5.13;;;3.03;;
15482;SDS011;7843;50.330;7.312;2022-11-14T02:59:09;4.72;;;3.28;;
15482;SDS011;7843;50.330;7.312;2022-11-14T03:01:35;5.03;;;3.25;;
15482;SDS011;7843;50.330;7.312;2022-11-14T03:04:02;6.63;;;3.95;;
15482;SDS011;7843;50.330;7.312;2022-11-14T03:06:29;6.20;;;3.50;;
15482;SDS011;7843;50.330;7.312;2022-11-14T03:08:56;7.50;;;3.70;;
15482;SDS011;7843;50.330;7.312;2022-11-14T03:11:22;7.50;;;4.43;;
15482;SDS011;7843;50.330;7.312;2022-11-14T03:13:49;9.38;;;4.85;;
15482;SDS011;7843;50.330;7.312;2022-11-14T03:16:16;16.73;;;9.30;;
15482;SDS011;7843;50.330;7.312;2022-11-14T03:18:43;9.60;;;4.90;;
15482;SDS011;7843;50.330;7.312;2022-11-14T03:21:11;9.27;;;6.10;;
15482;SDS011;7843;50.330;7.312;2022-11-14T03:23:44;9.85;;;5.30;;
15482;SDS011;7843;50.330;7.312;2022-11-14T03:26:11;8.27;;;5.38;;
15482;SDS011;7843;50.330;7.312;2022-11-14T03:28:39;10.90;;;6.60;;
15482;SDS011;7843;50.330;7.312;2022-11-14T03:31:06;11.13;;;6.97;;
15482;SDS011;7843;50.330;7.312;2022-11-14T03:33:35;10.75;;;6.60;;
15482;SDS011;7843;50.330;7.312;2022-11-14T03:36:02;7.35;;;4.65;;
15482;SDS011;7843;50.330;7.312;2022-11-14T03:38:30;7.10;;;4.45;;
15482;SDS011;7843;50.330;7.312;2022-11-14T03:40:57;8.87;;;4.47;;
15482;SDS011;7843;50.330;7.312;2022-11-14T03:43:25;7.05;;;4.60;;
15482;SDS011;7843;50.330;7.312;2022-11-14T03:45:58;8.53;;;4.73;;
15482;SDS011;7843;50.330;7.312;2022-11-14T03:48:26;9.32;;;5.20;;
15482;SDS011;7843;50.330;7.312;2022-11-14T03:50:54;7.57;;;4.80;;
15482;SDS011;7843;50.330;7.312;2022-11-14T03:53:20;10.00;;;5.00;;
15482;SDS011;7843;50.330;7.312;2022-11-14T03:55:48;12.35;;;6.05;;
15482;SDS011;7843;50.330;7.312;2022-11-14T03:58:16;10.02;;;5.85;;
15482;SDS011;7843;50.330;7.312;2022-11-14T04:00:43;9.85;;;5.63;;
15482;SDS011;7843;50.330;7.312;2022-11-14T04:03:10;7.75;;;4.63;;
15482;SDS011;7843;50.330;7.312;2022-11-14T04:05:37;12.05;;;5.40;;
15482;SDS011;7843;50.330;7.312;2022-11-14T04:08:04;12.57;;;7.47;;
15482;SDS011;7843;50.330;7.312;2022-11-14T04:10:31;13.05;;;7.30;;
15482;SDS011;7843;50.330;7.312;2022-11-14T04:12:58;16.38;;;9.25;;
15482;SDS011;7843;50.330;7.312;2022-11-14T04:15:24;15.90;;;9.55;;
15482;SDS011;7843;50.330;7.312;2022-11-14T04:17:51;15.73;;;9.10;;
15482;SDS011;7843;50.330;7.312;2022-11-14T04:20:18;23.85;;;11.27;;
15482;SDS011;7843;50.330;7.312;2022-11-14T04:22:44;20.80;;;12.20;;
15482;SDS011;7843;50.330;7.312;2022-11-14T04:25:11;22.85;;;13.77;;
15482;SDS011;7843;50.330;7.312;2022-11-14T04:27:38;16.25;;;8.73;;
15482;SDS011;7843;50.330;7.312;2022-11-14T04:30:05;14.23;;;8.38;;
15482;SDS011;7843;50.330;7.312;2022-11-14T04:32:32;24.73;;;13.63;;
15482;SDS011;7843;50.330;7.312;2022-11-14T04:34:59;21.52;;;11.68;;
15482;SDS011;7843;50.330;7.312;2022-11-14T04:37:26;40.00;;;19.83;;
15482;SDS011;7843;50.330;7.312;2022-11-14T04:39:52;38.55;;;18.73;;
15482;SDS011;7843;50.330;7.312;2022-11-14T04:42:23;21.00;;;11.45;;
15482;SDS011;7843;50.330;7.312;2022-11-14T04:44:51;16.05;;;9.13;;
15482;SDS011;7843;50.330;7.312;2022-11-14T04:47:17;14.23;;;8.20;;
15482;SDS011;7843;50.330;7.312;2022-11-14T04:49:44;12.23;;;7.20;;
15482;SDS011;7843;50.330;7.312;2022-11-14T04:52:11;12.57;;;7.32;;
15482;SDS011;7843;50.330;7.312;2022-11-14T04:54:38;12.05;;;6.43;;
15482;SDS011;7843;50.330;7.312;2022-11-14T04:57:05;10.48;;;5.63;;
15482;SDS011;7843;50.330;7.312;2022-11-14T04:59:31;8.82;;;5.40;;
15482;SDS011;7843;50.330;7.312;2022-11-14T05:01:58;10.87;;;5.70;;
15482;SDS011;7843;50.330;7.312;2022-11-14T05:04:25;10.37;;;5.60;;
15482;SDS011;7843;50.330;7.312;2022-11-14T05:06:51;7.90;;;4.97;;
15482;SDS011;7843;50.330;7.312;2022-11-14T05:09:18;10.20;;;6.03;;
15482;SDS011;7843;50.330;7.312;2022-11-14T05:11:45;14.70;;;7.65;;
15482;SDS011;7843;50.330;7.312;2022-11-14T05:14:13;13.15;;;7.10;;
15482;SDS011;7843;50.330;7.312;2022-11-14T05:16:40;14.07;;;7.95;;
15482;SDS011;7843;50.330;7.312;2022-11-14T05:19:07;11.73;;;7.47;;
15482;SDS011;7843;50.330;7.312;2022-11-14T05:21:36;11.23;;;7.55;;
15482;SDS011;7843;50.330;7.312;2022-11-14T05:24:03;14.95;;;8.30;;
15482;SDS011;7843;50.330;7.312;2022-11-14T05:26:30;12.05;;;7.55;;
15482;SDS011;7843;50.330;7.312;2022-11-14T05:28:56;14.63;;;7.63;;
15482;SDS011;7843;50.330;7.312;2022-11-14T05:31:23;13.00;;;7.57;;
15482;SDS011;7843;50.330;7.312;2022-11-14T05:33:50;13.80;;;7.65;;
15482;SDS011;7843;50.330;7.312;2022-11-14T05:36:17;12.27;;;8.05;;
15482;SDS011;7843;50.330;7.312;2022-11-14T05:38:44;10.95;;;7.18;;
15482;SDS011;7843;50.330;7.312;2022-11-14T05:41:14;13.63;;;7.72;;
15482;SDS011;7843;50.330;7.312;2022-11-14T05:43:42;8.70;;;4.97;;
15482;SDS011;7843;50.330;7.312;2022-11-14T05:46:10;10.68;;;5.85;;
15482;SDS011;7843;50.330;7.312;2022-11-14T05:48:38;10.33;;;6.57;;
15482;SDS011;7843;50.330;7.312;2022-11-14T05:51:06;9.88;;;5.78;;
15482;SDS011;7843;50.330;7.312;2022-11-14T05:53:34;9.70;;;6.32;;
15482;SDS011;7843;50.330;7.312;2022-11-14T05:56:03;11.15;;;5.60;;
15482;SDS011;7843;50.330;7.312;2022-11-14T05:58:31;8.97;;;5.43;;
15482;SDS011;7843;50.330;7.312;2022-11-14T06:01:03;9.60;;;5.65;;
15482;SDS011;7843;50.330;7.312;2022-11-14T06:03:32;11.38;;;5.85;;
15482;SDS011;7843;50.330;7.312;2022-11-14T06:06:01;12.57;;;7.23;;
15482;SDS011;7843;50.330;7.312;2022-11-14T06:08:29;12.38;;;6.93;;
15482;SDS011;7843;50.330;7.312;2022-11-14T06:10:58;16.58;;;7.65;;
15482;SDS011;7843;50.330;7.312;2022-11-14T06:13:30;11.82;;;7.72;;
15482;SDS011;7843;50.330;7.312;2022-11-14T06:16:01;16.83;;;8.23;;
15482;SDS011;7843;50.330;7.312;2022-11-14T06:18:30;15.95;;;8.68;;
15482;SDS011;7843;50.330;7.312;2022-11-14T06:23:27;16.30;;;8.52;;
15482;SDS011;7843;50.330;7.312;2022-11-14T06:26:00;14.45;;;8.43;;
15482;SDS011;7843;50.330;7.312;2022-11-14T06:28:29;16.63;;;9.00;;
15482;SDS011;7843;50.330;7.312;2022-11-14T06:31:00;17.63;;;9.77;;
15482;SDS011;7843;50.330;7.312;2022-11-14T06:33:28;19.13;;;9.95;;
15482;SDS011;7843;50.330;7.312;2022-11-14T06:35:59;17.38;;;9.20;;
15482;SDS011;7843;50.330;7.312;2022-11-14T06:38:29;16.60;;;9.27;;
15482;SDS011;7843;50.330;7.312;2022-11-14T06:41:04;16.02;;;8.50;;
15482;SDS011;7843;50.330;7.312;2022-11-14T06:43:36;17.95;;;9.43;;
15482;SDS011;7843;50.330;7.312;2022-11-14T06:46:07;16.97;;;8.67;;
15482;SDS011;7843;50.330;7.312;2022-11-14T06:48:36;16.67;;;9.35;;
15482;SDS011;7843;50.330;7.312;2022-11-14T06:51:04;19.95;;;9.25;;
15482;SDS011;7843;50.330;7.312;2022-11-14T06:53:32;17.80;;;8.98;;
15482;SDS011;7843;50.330;7.312;2022-11-14T06:56:00;17.33;;;7.97;;
15482;SDS011;7843;50.330;7.312;2022-11-14T06:58:37;17.60;;;9.20;;
15482;SDS011;7843;50.330;7.312;2022-11-14T07:01:12;16.42;;;8.48;;
15482;SDS011;7843;50.330;7.312;2022-11-14T07:03:41;15.80;;;8.27;;
15482;SDS011;7843;50.330;7.312;2022-11-14T07:06:09;22.80;;;11.97;;
15482;SDS011;7843;50.330;7.312;2022-11-14T07:08:41;26.30;;;13.00;;
15482;SDS011;7843;50.330;7.312;2022-11-14T07:11:11;22.33;;;11.82;;
15482;SDS011;7843;50.330;7.312;2022-11-14T07:13:51;17.65;;;8.95;;
15482;SDS011;7843;50.330;7.312;2022-11-14T07:16:30;18.02;;;10.27;;
15482;SDS011;7843;50.330;7.312;2022-11-14T07:18:58;16.50;;;8.73;;
15482;SDS011;7843;50.330;7.312;2022-11-14T07:21:25;26.50;;;12.67;;
15482;SDS011;7843;50.330;7.312;2022-11-14T07:23:54;30.57;;;15.03;;
15482;SDS011;7843;50.330;7.312;2022-11-14T07:26:22;17.80;;;8.82;;
15482;SDS011;7843;50.330;7.312;2022-11-14T07:28:49;15.20;;;8.13;;
15482;SDS011;7843;50.330;7.312;2022-11-14T07:31:18;18.35;;;8.90;;
15482;SDS011;7843;50.330;7.312;2022-11-14T07:33:45;24.25;;;13.30;;
15482;SDS011;7843;50.330;7.312;2022-11-14T07:36:13;47.90;;;24.27;;
15482;SDS011;7843;50.330;7.312;2022-11-14T07:38:41;41.42;;;22.33;;
15482;SDS011;7843;50.330;7.312;2022-11-14T07:41:09;41.50;;;21.83;;
15482;SDS011;7843;50.330;7.312;2022-11-14T07:43:37;27.27;;;14.45;;
15482;SDS011;7843;50.330;7.312;2022-11-14T07:46:06;22.88;;;12.02;;
15482;SDS011;7843;50.330;7.312;2022-11-14T07:48:51;19.30;;;10.93;;
15482;SDS011;7843;50.330;7.312;2022-11-14T07:51:18;23.38;;;9.88;;
15482;SDS011;7843;50.330;7.312;2022-11-14T07:53:45;15.57;;;9.38;;
15482;SDS011;7843;50.330;7.312;2022-11-14T07:56:12;19.33;;;9.73;;
15482;SDS011;7843;50.330;7.312;2022-11-14T07:58:39;18.50;;;9.63;;
15482;SDS011;7843;50.330;7.312;2022-11-14T08:01:08;17.38;;;8.85;;
15482;SDS011;7843;50.330;7.312;2022-11-14T08:03:36;20.08;;;9.95;;
15482;SDS011;7843;50.330;7.312;2022-11-14T08:06:06;18.45;;;9.40;;
15482;SDS011;7843;50.330;7.312;2022-11-14T08:08:34;19.13;;;9.77;;
15482;SDS011;7843;50.330;7.312;2022-11-14T08:11:02;16.83;;;9.43;;
15482;SDS011;7843;50.330;7.312;2022-11-14T08:13:29;19.70;;;10.35;;
15482;SDS011;7843;50.330;7.312;2022-11-14T08:15:57;20.57;;;11.50;;
15482;SDS011;7843;50.330;7.312;2022-11-14T08:18:25;21.58;;;10.43;;
15482;SDS011;7843;50.330;7.312;2022-11-14T08:20:52;21.00;;;12.00;;
15482;SDS011;7843;50.330;7.312;2022-11-14T08:23:19;70.95;;;32.20;;
15482;SDS011;7843;50.330;7.312;2022-11-14T08:25:46;50.22;;;25.33;;
15482;SDS011;7843;50.330;7.312;2022-11-14T08:28:12;82.57;;;38.30;;
15482;SDS011;7843;50.330;7.312;2022-11-14T08:30:39;40.35;;;18.40;;
15482;SDS011;7843;50.330;7.312;2022-11-14T08:33:06;39.88;;;19.60;;
15482;SDS011;7843;50.330;7.312;2022-11-14T08:35:33;51.00;;;21.85;;
15482;SDS011;7843;50.330;7.312;2022-11-14T08:38:00;26.00;;;13.20;;
15482;SDS011;7843;50.330;7.312;2022-11-14T08:40:28;16.75;;;8.52;;
15482;SDS011;7843;50.330;7.312;2022-11-14T08:42:59;26.35;;;11.60;;
15482;SDS011;7843;50.330;7.312;2022-11-14T08:45:28;30.92;;;15.60;;
15482;SDS011;7843;50.330;7.312;2022-11-14T08:47:55;24.90;;;12.50;;
15482;SDS011;7843;50.330;7.312;2022-11-14T08:50:22;31.15;;;15.70;;
15482;SDS011;7843;50.330;7.312;2022-11-14T08:52:51;24.73;;;12.57;;
15482;SDS011;7843;50.330;7.312;2022-11-14T08:55:19;16.90;;;9.40;;
15482;SDS011;7843;50.330;7.312;2022-11-14T08:57:46;21.60;;;11.90;;
15482;SDS011;7843;50.330;7.312;2022-11-14T09:00:14;16.60;;;8.95;;
15482;SDS011;7843;50.330;7.312;2022-11-14T09:02:41;14.73;;;7.85;;
15482;SDS011;7843;50.330;7.312;2022-11-14T09:05:08;15.13;;;7.82;;
15482;SDS011;7843;50.330;7.312;2022-11-14T09:07:35;15.90;;;8.10;;
15482;SDS011;7843;50.330;7.312;2022-11-14T09:10:02;12.85;;;7.25;;
15482;SDS011;7843;50.330;7.312;2022-11-14T09:12:30;13.07;;;7.47;;
15482;SDS011;7843;50.330;7.312;2022-11-14T09:14:56;15.25;;;7.50;;
15482;SDS011;7843;50.330;7.312;2022-11-14T09:17:23;15.82;;;8.25;;
15482;SDS011;7843;50.330;7.312;2022-11-14T09:19:50;13.83;;;7.47;;
15482;SDS011;7843;50.330;7.312;2022-11-14T09:22:17;12.27;;;6.97;;
15482;SDS011;7843;50.330;7.312;2022-11-14T09:24:43;12.63;;;7.13;;
15482;SDS011;7843;50.330;7.312;2022-11-14T09:27:12;13.20;;;6.63;;
15482;SDS011;7843;50.330;7.312;2022-11-14T09:29:39;13.15;;;6.85;;
15482;SDS011;7843;50.330;7.312;2022-11-14T09:32:06;11.77;;;7.05;;
15482;SDS011;7843;50.330;7.312;2022-11-14T09:34:32;13.57;;;6.93;;
15482;SDS011;7843;50.330;7.312;2022-11-14T09:36:59;12.07;;;5.97;;
15482;SDS011;7843;50.330;7.312;2022-11-14T09:39:26;10.43;;;6.30;;
15482;SDS011;7843;50.330;7.312;2022-11-14T09:42:05;10.70;;;6.00;;
15482;SDS011;7843;50.330;7.312;2022-11-14T09:47:32;12.57;;;7.15;;
15482;SDS011;7843;50.330;7.312;2022-11-14T09:50:15;10.73;;;6.35;;
15482;SDS011;7843;50.330;7.312;2022-11-14T09:52:57;10.07;;;6.03;;
15482;SDS011;7843;50.330;7.312;2022-11-14T09:55:29;12.38;;;6.63;;
15482;SDS011;7843;50.330;7.312;2022-11-14T09:58:01;13.02;;;7.07;;
15482;SDS011;7843;50.330;7.312;2022-11-14T10:00:36;12.60;;;7.60;;
15482;SDS011;7843;50.330;7.312;2022-11-14T10:03:32;12.63;;;6.60;;
15482;SDS011;7843;50.330;7.312;2022-11-14T10:12:03;12.73;;;6.60;;
15482;SDS011;7843;50.330;7.312;2022-11-14T10:14:40;11.67;;;6.07;;
15482;SDS011;7843;50.330;7.312;2022-11-14T10:20:02;10.07;;;6.63;;
15482;SDS011;7843;50.330;7.312;2022-11-14T10:25:42;13.25;;;8.52;;
15482;SDS011;7843;50.330;7.312;2022-11-14T10:28:22;15.75;;;8.68;;
15482;SDS011;7843;50.330;7.312;2022-11-14T10:34:14;39.65;;;18.30;;
15482;SDS011;7843;50.330;7.312;2022-11-14T10:40:08;24.75;;;12.82;;
15482;SDS011;7843;50.330;7.312;2022-11-14T10:42:59;18.13;;;9.45;;
15482;SDS011;7843;50.330;7.312;2022-11-14T10:45:30;15.27;;;8.48;;
15482;SDS011;7843;50.330;7.312;2022-11-14T10:48:08;14.75;;;8.30;;
15482;SDS011;7843;50.330;7.312;2022-11-14T10:50:44;15.93;;;8.73;;
15482;SDS011;7843;50.330;7.312;2022-11-14T10:53:26;15.93;;;9.15;;
15482;SDS011;7843;50.330;7.312;2022-11-14T10:56:00;15.60;;;9.73;;
15482;SDS011;7843;50.330;7.312;2022-11-14T10:58:29;15.50;;;9.60;;
15482;SDS011;7843;50.330;7.312;2022-11-14T11:00:56;15.10;;;8.77;;
15482;SDS011;7843;50.330;7.312;2022-11-14T11:03:44;17.17;;;10.35;;
15482;SDS011;7843;50.330;7.312;2022-11-14T11:06:23;18.83;;;10.40;;
15482;SDS011;7843;50.330;7.312;2022-11-14T11:08:51;17.97;;;9.60;;
15482;SDS011;7843;50.330;7.312;2022-11-14T11:11:38;16.73;;;9.23;;
15482;SDS011;7843;50.330;7.312;2022-11-14T11:14:14;16.90;;;9.48;;
15482;SDS011;7843;50.330;7.312;2022-11-14T11:16:45;19.77;;;10.55;;
15482;SDS011;7843;50.330;7.312;2022-11-14T11:19:22;16.38;;;9.75;;
15482;SDS011;7843;50.330;7.312;2022-11-14T11:21:51;17.30;;;10.18;;
15482;SDS011;7843;50.330;7.312;2022-11-14T11:29:45;25.42;;;14.57;;
15482;SDS011;7843;50.330;7.312;2022-11-14T11:32:22;15.45;;;9.30;;
15482;SDS011;7843;50.330;7.312;2022-11-14T11:34:51;19.20;;;10.25;;
15482;SDS011;7843;50.330;7.312;2022-11-14T11:37:19;18.20;;;9.32;;
15482;SDS011;7843;50.330;7.312;2022-11-14T11:39:56;15.68;;;9.02;;
15482;SDS011;7843;50.330;7.312;2022-11-14T11:43:15;16.75;;;9.75;;
15482;SDS011;7843;50.330;7.312;2022-11-14T11:45:35;14.30;;;8.23;;
15482;SDS011;7843;50.330;7.312;2022-11-14T11:48:14;16.15;;;9.30;;
15482;SDS011;7843;50.330;7.312;2022-11-14T11:50:44;17.33;;;9.48;;
15482;SDS011;7843;50.330;7.312;2022-11-14T11:55:48;14.17;;;8.53;;
15482;SDS011;7843;50.330;7.312;2022-11-14T12:00:55;17.25;;;10.30;;
15482;SDS011;7843;50.330;7.312;2022-11-14T12:03:23;17.02;;;9.25;;
15482;SDS011;7843;50.330;7.312;2022-11-14T12:06:01;14.43;;;8.65;;
15482;SDS011;7843;50.330;7.312;2022-11-14T12:09:13;13.77;;;8.38;;
15482;SDS011;7843;50.330;7.312;2022-11-14T12:11:57;13.68;;;8.27;;
15482;SDS011;7843;50.330;7.312;2022-11-14T12:31:51;18.02;;;9.63;;
15482;SDS011;7843;50.330;7.312;2022-11-14T12:34:31;17.17;;;8.57;;
15482;SDS011;7843;50.330;7.312;2022-11-14T12:37:23;15.95;;;9.70;;
15482;SDS011;7843;50.330;7.312;2022-11-14T12:40:06;17.35;;;9.80;;
15482;SDS011;7843;50.330;7.312;2022-11-14T12:42:46;17.67;;;10.70;;
15482;SDS011;7843;50.330;7.312;2022-11-14T12:50:48;21.40;;;11.40;;
15482;SDS011;7843;50.330;7.312;2022-11-14T13:06:58;19.30;;;10.38;;
15482;SDS011;7843;50.330;7.312;2022-11-14T13:12:15;15.98;;;9.45;;
15482;SDS011;7843;50.330;7.312;2022-11-14T13:15:24;23.30;;;13.07;;
15482;SDS011;7843;50.330;7.312;2022-11-14T13:18:19;18.70;;;10.52;;
15482;SDS011;7843;50.330;7.312;2022-11-14T13:21:18;17.23;;;9.52;;
15482;SDS011;7843;50.330;7.312;2022-11-14T13:24:17;17.77;;;10.60;;
15482;SDS011;7843;50.330;7.312;2022-11-14T13:26:45;18.17;;;10.02;;
15482;SDS011;7843;50.330;7.312;2022-11-14T13:35:17;24.60;;;12.98;;
15482;SDS011;7843;50.330;7.312;2022-11-14T13:40:45;24.42;;;13.10;;
15482;SDS011;7843;50.330;7.312;2022-11-14T13:52:24;20.05;;;12.02;;
15482;SDS011;7843;50.330;7.312;2022-11-14T13:54:55;21.40;;;12.35;;
15482;SDS011;7843;50.330;7.312;2022-11-14T14:06:16;20.70;;;11.48;;
15482;SDS011;7843;50.330;7.312;2022-11-14T14:11:43;25.88;;;14.20;;
15482;SDS011;7843;50.330;7.312;2022-11-14T14:14:36;18.05;;;10.95;;
15482;SDS011;7843;50.330;7.312;2022-11-14T14:17:31;19.30;;;10.55;;
15482;SDS011;7843;50.330;7.312;2022-11-14T14:20:16;19.23;;;11.50;;
15482;SDS011;7843;50.330;7.312;2022-11-14T14:28:34;17.08;;;10.38;;
15482;SDS011;7843;50.330;7.312;2022-11-14T14:31:15;15.82;;;9.15;;
15482;SDS011;7843;50.330;7.312;2022-11-14T14:33:48;19.55;;;10.75;;
15482;SDS011;7843;50.330;7.312;2022-11-14T14:36:18;18.80;;;10.80;;
15482;SDS011;7843;50.330;7.312;2022-11-14T14:38:49;15.23;;;10.30;;
15482;SDS011;7843;50.330;7.312;2022-11-14T14:41:17;23.23;;;12.57;;
15482;SDS011;7843;50.330;7.312;2022-11-14T14:43:52;18.33;;;11.03;;
15482;SDS011;7843;50.330;7.312;2022-11-14T14:46:25;16.80;;;9.93;;
15482;SDS011;7843;50.330;7.312;2022-11-14T14:48:56;21.02;;;11.88;;
15482;SDS011;7843;50.330;7.312;2022-11-14T14:51:34;23.25;;;11.68;;
15482;SDS011;7843;50.330;7.312;2022-11-14T14:54:03;24.90;;;13.68;;
15482;SDS011;7843;50.330;7.312;2022-11-14T14:56:32;28.52;;;15.23;;
15482;SDS011;7843;50.330;7.312;2022-11-14T14:59:01;21.63;;;11.95;;
15482;SDS011;7843;50.330;7.312;2022-11-14T15:01:41;19.40;;;11.17;;
15482;SDS011;7843;50.330;7.312;2022-11-14T15:04:08;23.20;;;12.50;;
15482;SDS011;7843;50.330;7.312;2022-11-14T15:06:43;25.13;;;13.45;;
15482;SDS011;7843;50.330;7.312;2022-11-14T15:09:21;24.80;;;12.68;;
15482;SDS011;7843;50.330;7.312;2022-11-14T15:11:53;38.75;;;19.10;;
15482;SDS011;7843;50.330;7.312;2022-11-14T15:14:24;28.47;;;15.20;;
15482;SDS011;7843;50.330;7.312;2022-11-14T15:17:00;16.10;;;10.40;;
15482;SDS011;7843;50.330;7.312;2022-11-14T15:19:39;21.20;;;11.32;;
15482;SDS011;7843;50.330;7.312;2022-11-14T15:24:42;17.65;;;10.10;;
15482;SDS011;7843;50.330;7.312;2022-11-14T15:27:10;17.25;;;10.32;;
15482;SDS011;7843;50.330;7.312;2022-11-14T15:30:18;17.25;;;10.73;;
15482;SDS011;7843;50.330;7.312;2022-11-14T15:32:48;19.40;;;11.70;;
15482;SDS011;7843;50.330;7.312;2022-11-14T15:41:07;24.40;;;13.77;;
15482;SDS011;7843;50.330;7.312;2022-11-14T15:43:35;19.63;;;12.05;;
15482;SDS011;7843;50.330;7.312;2022-11-14T15:49:06;17.73;;;10.52;;
15482;SDS011;7843;50.330;7.312;2022-11-14T15:51:41;26.05;;;13.50;;
15482;SDS011;7843;50.330;7.312;2022-11-14T15:54:20;32.00;;;16.17;;
15482;SDS011;7843;50.330;7.312;2022-11-14T15:56:50;32.13;;;17.13;;
15482;SDS011;7843;50.330;7.312;2022-11-14T15:59:17;25.27;;;14.93;;
15482;SDS011;7843;50.330;7.312;2022-11-14T16:01:45;20.55;;;13.30;;
15482;SDS011;7843;50.330;7.312;2022-11-14T16:04:16;18.20;;;11.48;;
15482;SDS011;7843;50.330;7.312;2022-11-14T16:06:47;17.48;;;10.07;;
15482;SDS011;7843;50.330;7.312;2022-11-14T16:09:15;21.20;;;10.48;;
15482;SDS011;7843;50.330;7.312;2022-11-14T16:11:43;17.80;;;10.45;;
15482;SDS011;7843;50.330;7.312;2022-11-14T16:14:10;18.65;;;10.43;;
15482;SDS011;7843;50.330;7.312;2022-11-14T16:16:37;17.42;;;9.70;;
15482;SDS011;7843;50.330;7.312;2022-11-14T16:19:05;15.30;;;8.25;;
15482;SDS011;7843;50.330;7.312;2022-11-14T16:21:32;16.17;;;8.80;;
15482;SDS011;7843;50.330;7.312;2022-11-14T16:23:59;14.88;;;8.80;;
15482;SDS011;7843;50.330;7.312;2022-11-14T16:26:26;9.27;;;6.03;;
15482;SDS011;7843;50.330;7.312;2022-11-14T16:28:54;11.27;;;5.88;;
15482;SDS011;7843;50.330;7.312;2022-11-14T16:31:22;13.23;;;5.15;;
15482;SDS011;7843;50.330;7.312;2022-11-14T16:33:48;7.05;;;4.70;;
15482;SDS011;7843;50.330;7.312;2022-11-14T16:36:15;7.85;;;4.50;;
15482;SDS011;7843;50.330;7.312;2022-11-14T16:38:45;7.97;;;4.70;;
15482;SDS011;7843;50.330;7.312;2022-11-14T16:41:14;8.93;;;5.05;;
15482;SDS011;7843;50.330;7.312;2022-11-14T16:43:42;10.80;;;5.60;;
15482;SDS011;7843;50.330;7.312;2022-11-14T16:46:08;8.90;;;4.95;;
15482;SDS011;7843;50.330;7.312;2022-11-14T16:48:41;8.83;;;5.27;;
15482;SDS011;7843;50.330;7.312;2022-11-14T16:51:08;8.48;;;5.32;;
15482;SDS011;7843;50.330;7.312;2022-11-14T16:53:40;9.77;;;5.65;;
15482;SDS011;7843;50.330;7.312;2022-11-14T16:56:09;9.77;;;5.47;;
15482;SDS011;7843;50.330;7.312;2022-11-14T16:58:36;8.45;;;5.45;;
15482;SDS011;7843;50.330;7.312;2022-11-14T17:01:06;8.00;;;4.85;;
15482;SDS011;7843;50.330;7.312;2022-11-14T17:03:36;9.20;;;5.45;;
15482;SDS011;7843;50.330;7.312;2022-11-14T17:06:06;8.77;;;5.35;;
15482;SDS011;7843;50.330;7.312;2022-11-14T17:08:33;7.43;;;4.80;;
15482;SDS011;7843;50.330;7.312;2022-11-14T17:11:00;7.72;;;4.82;;
15482;SDS011;7843;50.330;7.312;2022-11-14T17:13:27;7.88;;;5.07;;
15482;SDS011;7843;50.330;7.312;2022-11-14T17:15:59;11.05;;;5.13;;